Time;durP1;ratioP1;P1;durP2;ratioP2;P2;SDS_P1;SDS_P2;PMS_P1;PMS_P2;Temp;Humidity;BMP_temperature;BMP_pressure;BME280_temperature;BME280_humidity;BME280_pressure;Samples;Min_cycle;Max_cycle;Signal;HPM_P1;HPM_P2
2023/02/16 00:01:47;;;;;;;3.53;2.90;;;2.00;70.50;;;;;;5082924;28;20028;-54
2023/02/16 00:04:28;;;;;;;3.15;2.83;;;1.90;70.40;;;;;;5083357;28;20024;-50
2023/02/16 00:06:55;;;;;;;4.00;3.10;;;2.00;70.50;;;;;;5079129;28;20048;-58
2023/02/16 00:09:22;;;;;;;3.17;2.80;;;1.90;70.50;;;;;;5085516;28;20073;-58
2023/02/16 00:14:35;;;;;;;3.67;2.97;;;1.90;70.50;;;;;;5086128;28;20023;-60
2023/02/16 00:17:02;;;;;;;3.33;2.90;;;1.90;70.50;;;;;;5077040;28;20044;-53
2023/02/16 00:19:39;;;;;;;4.50;2.80;;;1.80;70.50;;;;;;5075212;28;20028;-53
2023/02/16 00:22:06;;;;;;;4.90;2.97;;;1.90;70.50;;;;;;5082316;28;20542;-59
2023/02/16 00:24:33;;;;;;;3.95;3.10;;;1.80;70.50;;;;;;5086092;28;20474;-59
2023/02/16 00:26:59;;;;;;;4.75;3.40;;;1.90;70.60;;;;;;5074758;28;20020;-58
2023/02/16 00:29:28;;;;;;;3.67;2.90;;;1.80;70.60;;;;;;5074545;28;20028;-58
2023/02/16 00:31:54;;;;;;;2.95;2.58;;;1.80;70.60;;;;;;5074692;28;20028;-62
2023/02/16 00:34:23;;;;;;;3.83;3.15;;;1.80;70.60;;;;;;5074770;28;20082;-62
2023/02/16 00:36:49;;;;;;;3.38;2.63;;;1.80;70.70;;;;;;5075049;28;20025;-62
2023/02/16 00:39:14;;;;;;;3.70;2.97;;;1.80;70.70;;;;;;5075199;28;20033;-62
2023/02/16 00:41:49;;;;;;;3.20;2.90;;;1.80;70.70;;;;;;5074969;28;20033;-60
2023/02/16 00:44:28;;;;;;;3.85;2.85;;;1.80;70.70;;;;;;5074966;28;20081;-60
2023/02/16 00:46:54;;;;;;;3.47;2.85;;;1.80;70.80;;;;;;5074268;28;20506;-61
2023/02/16 00:49:21;;;;;;;3.67;3.05;;;1.80;70.70;;;;;;5074390;28;20024;-62
2023/02/16 00:51:47;;;;;;;3.35;2.90;;;1.80;70.70;;;;;;5074782;28;20485;-60
2023/02/16 00:54:14;;;;;;;3.30;3.00;;;1.80;70.70;;;;;;5057115;28;20032;-60
2023/02/16 00:56:40;;;;;;;2.80;2.60;;;1.80;70.80;;;;;;5074730;28;20032;-61
2023/02/16 00:59:13;;;;;;;2.85;2.65;;;1.80;70.80;;;;;;5081188;28;20027;-62
2023/02/16 01:01:39;;;;;;;4.50;2.85;;;1.80;70.90;;;;;;5073587;28;20410;-62
2023/02/16 01:04:06;;;;;;;3.55;2.70;;;1.70;70.90;;;;;;5089129;28;20028;-62
2023/02/16 01:12:12;;;;;;;3.92;2.70;;;1.70;70.80;;;;;;5081302;28;20070;-51
2023/02/16 01:14:38;;;;;;;3.53;2.85;;;1.70;70.80;;;;;;5084436;28;20077;-51
2023/02/16 01:17:04;;;;;;;3.78;2.90;;;1.70;70.80;;;;;;5082273;28;20035;-62
2023/02/16 01:19:29;;;;;;;4.40;3.10;;;1.70;70.80;;;;;;5076580;28;20024;-65
2023/02/16 01:21:55;;;;;;;4.05;2.88;;;1.70;70.90;;;;;;5080541;28;20028;-58
2023/02/16 01:24:21;;;;;;;4.20;3.35;;;1.70;70.90;;;;;;5085558;28;20042;-58
2023/02/16 01:26:49;;;;;;;3.10;2.80;;;1.70;70.90;;;;;;5081323;28;20032;-58
2023/02/16 01:29:20;;;;;;;3.15;2.83;;;1.70;70.90;;;;;;5080464;28;20382;-58
2023/02/16 01:31:45;;;;;;;4.00;2.80;;;1.70;70.90;;;;;;5067374;28;20143;-58
2023/02/16 01:34:12;;;;;;;4.03;3.08;;;1.70;70.90;;;;;;5087291;28;20036;-58
2023/02/16 01:36:44;;;;;;;4.80;2.78;;;1.70;71.00;;;;;;5081395;28;20024;-58
2023/02/16 01:39:12;;;;;;;4.13;3.28;;;1.70;70.90;;;;;;5085834;28;20032;-58
2023/02/16 01:42:09;;;;;;;3.00;2.78;;;1.70;70.90;;;;;;5083405;28;20037;-59
2023/02/16 01:44:48;;;;;;;3.22;2.70;;;1.70;70.70;;;;;;5084997;28;20441;-57
2023/02/16 01:47:40;;;;;;;3.40;2.90;;;1.70;70.80;;;;;;5087179;28;20182;-58
2023/02/16 01:50:21;;;;;;;3.75;3.10;;;1.70;70.80;;;;;;5077583;28;20064;-58
2023/02/16 01:52:57;;;;;;;3.85;3.25;;;1.70;70.80;;;;;;5081086;28;20098;-58
2023/02/16 01:55:36;;;;;;;3.70;3.08;;;1.70;70.90;;;;;;5076349;28;20024;-58
2023/02/16 01:58:13;;;;;;;3.65;3.00;;;1.70;70.90;;;;;;5075092;28;20032;-59
2023/02/16 02:00:50;;;;;;;4.55;3.17;;;1.70;70.80;;;;;;5084858;28;20449;-58
2023/02/16 02:06:32;;;;;;;4.20;3.17;;;1.70;70.80;;;;;;5083613;28;20104;-58
2023/02/16 02:09:02;;;;;;;3.58;3.15;;;1.70;70.80;;;;;;5094769;28;20047;-59
2023/02/16 02:11:45;;;;;;;3.65;3.10;;;1.70;70.80;;;;;;5085981;28;20033;-58
2023/02/16 02:14:24;;;;;;;3.80;3.10;;;1.70;70.80;;;;;;5086152;28;20059;-58
2023/02/16 02:17:05;;;;;;;2.90;2.70;;;1.70;70.80;;;;;;5085668;28;20029;-59
2023/02/16 02:19:44;;;;;;;3.07;2.77;;;1.70;70.80;;;;;;5085247;28;20070;-57
2023/02/16 02:25:16;;;;;;;4.05;2.92;;;1.70;70.80;;;;;;5080105;28;20039;-58
2023/02/16 02:28:06;;;;;;;4.60;3.00;;;1.70;70.80;;;;;;5083373;28;20020;-61
2023/02/16 02:30:58;;;;;;;3.55;3.10;;;1.70;70.80;;;;;;5080862;28;20031;-61
2023/02/16 02:34:10;;;;;;;2.88;2.65;;;1.70;70.70;;;;;;5086388;28;20122;-61
2023/02/16 02:36:39;;;;;;;;;;;1.70;70.90;;;;;;5083887;28;20032;-62
2023/02/16 02:39:33;;;;;;;4.20;3.03;;;1.60;71.00;;;;;;5088852;28;20376;-62
2023/02/16 02:42:13;;;;;;;3.50;3.08;;;1.70;70.90;;;;;;5086644;28;20024;-53
2023/02/16 02:44:46;;;;;;;4.53;3.40;;;1.70;70.80;;;;;;5082323;28;20402;-53
2023/02/16 02:47:11;;;;;;;5.40;2.78;;;1.70;70.70;;;;;;5089422;28;20377;-51
2023/02/16 02:49:37;;;;;;;5.22;3.65;;;1.70;70.80;;;;;;5080735;28;20024;-52
2023/02/16 02:52:03;;;;;;;4.38;3.08;;;1.70;70.60;;;;;;5088661;28;20363;-59
2023/02/16 03:03:16;;;;;;;5.55;3.20;;;1.70;70.50;;;;;;5089195;28;20038;-59
2023/02/16 03:05:53;;;;;;;4.03;3.30;;;1.80;70.50;;;;;;5084213;28;20044;-60
2023/02/16 03:08:22;;;;;;;3.20;2.90;;;1.80;70.40;;;;;;5087000;28;20040;-61
2023/02/16 03:14:35;;;;;;;3.25;2.90;;;1.80;70.30;;;;;;5084368;28;20026;-57
2023/02/16 03:30:56;;;;;;;4.03;3.17;;;1.80;70.10;;;;;;5078725;28;20070;-50
2023/02/16 03:33:24;;;;;;;3.45;3.05;;;1.80;70.10;;;;;;5074392;28;20033;-51
2023/02/16 03:35:51;;;;;;;3.38;3.08;;;1.80;70.10;;;;;;5084944;28;20027;-60
2023/02/16 03:38:16;;;;;;;4.22;3.20;;;1.80;70.10;;;;;;5083079;28;20029;-59
2023/02/16 03:40:44;;;;;;;3.33;3.00;;;1.80;70.20;;;;;;5086478;28;20383;-61
2023/02/16 03:43:09;;;;;;;3.65;3.13;;;1.80;70.10;;;;;;5081968;28;20025;-62
2023/02/16 03:45:42;;;;;;;3.80;3.10;;;1.90;70.10;;;;;;5084672;28;20035;-59
2023/02/16 03:48:08;;;;;;;3.33;2.88;;;1.90;70.00;;;;;;5081074;28;20028;-60
2023/02/16 03:50:34;;;;;;;4.70;3.00;;;1.80;69.90;;;;;;5080653;28;20024;-57
2023/02/16 03:53:06;;;;;;;3.90;2.97;;;1.80;69.90;;;;;;5089133;28;20359;-55
2023/02/16 03:55:33;;;;;;;4.10;3.03;;;1.80;69.90;;;;;;5082294;28;20028;-62
2023/02/16 03:57:59;;;;;;;3.25;2.90;;;1.80;69.80;;;;;;5083262;28;20131;-61
2023/02/16 04:00:25;;;;;;;4.07;3.10;;;1.80;69.80;;;;;;5079429;28;20066;-62
2023/02/16 04:02:51;;;;;;;3.20;2.90;;;1.80;69.80;;;;;;5088082;28;20024;-65
2023/02/16 04:05:16;;;;;;;4.65;3.35;;;1.80;69.60;;;;;;5088018;28;20073;-63
2023/02/16 04:07:42;;;;;;;3.45;3.15;;;1.80;69.70;;;;;;5077669;28;20491;-52
2023/02/16 04:10:08;;;;;;;3.92;3.10;;;1.80;69.60;;;;;;5084165;28;20025;-54
2023/02/16 04:12:37;;;;;;;3.45;3.15;;;1.80;69.60;;;;;;5083205;28;20040;-60
2023/02/16 04:15:05;;;;;;;3.40;3.10;;;1.80;69.60;;;;;;5080598;28;20039;-60
2023/02/16 04:17:30;;;;;;;3.17;2.88;;;1.80;69.60;;;;;;5087917;28;20028;-60
2023/02/16 04:19:56;;;;;;;3.53;3.20;;;1.80;69.50;;;;;;5089269;28;20032;-60
2023/02/16 04:22:21;;;;;;;3.80;3.17;;;1.80;69.50;;;;;;5082417;28;20040;-60
2023/02/16 04:24:47;;;;;;;4.63;3.03;;;1.80;69.60;;;;;;5078841;28;20028;-60
2023/02/16 04:27:12;;;;;;;4.13;3.33;;;1.80;69.60;;;;;;5078581;28;20390;-58
2023/02/16 04:29:38;;;;;;;3.63;3.28;;;1.80;69.50;;;;;;5081732;28;20033;-58
2023/02/16 04:32:04;;;;;;;3.95;3.20;;;1.80;69.50;;;;;;5076717;28;20048;-61
2023/02/16 04:34:29;;;;;;;4.60;3.67;;;1.80;69.60;;;;;;5084848;28;20082;-61
2023/02/16 04:36:55;;;;;;;5.60;4.35;;;1.80;69.50;;;;;;5084086;28;20025;-49
2023/02/16 04:39:21;;;;;;;5.00;3.78;;;1.80;69.50;;;;;;5081980;28;20035;-50
2023/02/16 04:41:46;;;;;;;5.18;3.80;;;1.90;69.60;;;;;;5082165;28;20028;-59
2023/02/16 04:44:12;;;;;;;5.05;3.90;;;1.80;69.40;;;;;;5083633;28;20024;-58
2023/02/16 04:46:38;;;;;;;6.55;3.90;;;1.90;69.40;;;;;;5085358;28;20056;-60
2023/02/16 04:49:03;;;;;;;5.53;4.30;;;1.90;69.40;;;;;;5088515;28;20028;-60
2023/02/16 04:51:29;;;;;;;5.05;3.88;;;1.90;69.30;;;;;;5079395;28;20033;-57
2023/02/16 04:53:55;;;;;;;5.78;3.97;;;1.90;69.30;;;;;;5075992;28;20032;-59
2023/02/16 04:56:20;;;;;;;5.60;4.38;;;1.90;69.20;;;;;;5081521;28;20433;-64
2023/02/16 04:58:46;;;;;;;5.65;4.13;;;2.00;69.30;;;;;;5078433;28;20094;-64
2023/02/16 05:01:19;;;;;;;5.88;4.53;;;2.00;69.10;;;;;;5086330;28;20482;-63
2023/02/16 05:03:45;;;;;;;5.78;4.18;;;2.00;69.00;;;;;;5079927;28;20033;-63
2023/02/16 05:06:11;;;;;;;7.97;4.60;;;2.00;69.00;;;;;;5083360;28;20047;-63
2023/02/16 05:08:36;;;;;;;6.00;5.18;;;2.00;68.90;;;;;;5068693;28;20085;-63
2023/02/16 05:16:30;;;;;;;11.63;8.90;;;2.10;68.80;;;;;;5075220;28;20493;-64
2023/02/16 05:18:56;;;;;;;13.18;9.50;;;2.10;68.70;;;;;;5076068;28;20114;-60
2023/02/16 05:21:30;;;;;;;9.75;8.75;;;2.10;68.70;;;;;;5082736;28;20039;-52
2023/02/16 05:23:57;;;;;;;10.35;8.43;;;2.10;68.70;;;;;;5076012;28;20171;-53
2023/02/16 05:26:23;;;;;;;12.18;8.52;;;2.10;68.80;;;;;;5077765;28;20036;-65
2023/02/16 05:28:49;;;;;;;11.63;7.63;;;2.10;68.90;;;;;;5083224;28;20040;-58
2023/02/16 05:31:15;;;;;;;9.13;7.00;;;2.10;69.10;;;;;;5086777;28;20108;-64
2023/02/16 05:33:41;;;;;;;8.23;6.88;;;2.10;69.10;;;;;;5081043;28;20031;-64
2023/02/16 05:36:06;;;;;;;8.27;6.40;;;2.10;69.40;;;;;;5076900;28;20024;-54
2023/02/16 05:38:32;;;;;;;11.13;7.05;;;2.20;69.60;;;;;;5079761;28;20020;-55
2023/02/16 05:40:58;;;;;;;10.25;7.75;;;2.20;69.60;;;;;;5081165;28;20023;-61
2023/02/16 05:43:24;;;;;;;9.73;7.30;;;2.30;69.70;;;;;;5078226;28;20119;-61
2023/02/16 05:45:50;;;;;;;9.38;7.55;;;2.30;69.70;;;;;;5057252;28;20095;-61
2023/02/16 05:48:16;;;;;;;9.57;6.95;;;2.40;69.80;;;;;;5081708;28;20086;-61
2023/02/16 05:50:41;;;;;;;10.32;7.15;;;2.50;69.80;;;;;;5085123;28;20032;-61
2023/02/16 05:53:07;;;;;;;10.52;7.07;;;2.50;69.70;;;;;;5073841;28;20032;-61
2023/02/16 05:55:33;;;;;;;9.05;6.07;;;2.70;69.70;;;;;;5078628;28;20112;-61
2023/02/16 05:57:58;;;;;;;9.55;7.03;;;2.70;69.70;;;;;;5072613;28;20185;-61
2023/02/16 06:00:24;;;;;;;7.22;6.10;;;2.80;69.70;;;;;;5083466;28;20534;-61
2023/02/16 06:02:50;;;;;;;7.38;5.82;;;2.90;69.70;;;;;;5074454;28;20036;-61
2023/02/16 06:05:16;;;;;;;8.45;6.35;;;3.00;69.50;;;;;;5082334;28;20660;-60
2023/02/16 06:07:41;;;;;;;9.13;6.35;;;3.10;69.50;;;;;;5078762;28;20410;-61
2023/02/16 06:10:07;;;;;;;8.73;7.25;;;3.20;69.50;;;;;;5072240;28;20036;-61
2023/02/16 06:12:33;;;;;;;10.93;7.75;;;3.30;69.50;;;;;;5071599;28;20028;-61
2023/02/16 06:15:00;;;;;;;11.07;8.25;;;3.40;69.20;;;;;;5081105;28;20107;-61
2023/02/16 06:17:27;;;;;;;11.40;8.02;;;3.60;69.20;;;;;;5077762;28;20029;-61
2023/02/16 06:19:53;;;;;;;9.73;7.60;;;3.70;69.20;;;;;;5078900;28;20033;-61
2023/02/16 06:22:19;;;;;;;12.73;9.02;;;4.00;69.00;;;;;;5078152;28;20046;-59
2023/02/16 06:24:44;;;;;;;12.18;7.97;;;4.20;68.60;;;;;;5086485;28;20024;-61
2023/02/16 06:27:10;;;;;;;12.32;7.78;;;4.30;68.20;;;;;;5083909;28;20034;-62
2023/02/16 06:29:36;;;;;;;10.32;7.47;;;4.50;67.60;;;;;;5082842;28;20115;-61
2023/02/16 06:32:01;;;;;;;9.75;7.18;;;4.70;67.00;;;;;;5073227;28;20432;-61
2023/02/16 06:34:27;;;;;;;11.88;8.13;;;4.80;66.40;;;;;;5074248;28;20082;-61
2023/02/16 06:36:52;;;;;;;9.52;7.07;;;4.80;66.10;;;;;;5080164;28;20020;-61
2023/02/16 06:39:18;;;;;;;11.68;7.72;;;4.90;65.90;;;;;;5078349;28;20032;-61
2023/02/16 06:41:44;;;;;;;11.57;7.90;;;4.90;65.70;;;;;;5072842;28;20028;-60
2023/02/16 06:44:12;;;;;;;9.27;7.93;;;4.90;65.40;;;;;;5080644;28;20118;-61
2023/02/16 06:46:39;;;;;;;11.65;8.48;;;4.90;65.50;;;;;;5081887;28;20386;-61
2023/02/16 06:49:05;;;;;;;11.25;8.05;;;4.90;65.30;;;;;;5082372;28;20036;-60
2023/02/16 06:51:30;;;;;;;9.77;7.80;;;4.90;65.20;;;;;;5080655;28;20059;-60
2023/02/16 06:53:56;;;;;;;11.43;8.30;;;4.90;65.10;;;;;;5084394;28;20029;-60
2023/02/16 06:56:23;;;;;;;11.25;8.13;;;4.90;64.90;;;;;;5076493;28;20033;-61
2023/02/16 06:58:49;;;;;;;12.85;9.02;;;4.90;65.00;;;;;;5076288;28;20528;-61
2023/02/16 07:01:21;;;;;;;11.68;8.75;;;4.90;65.20;;;;;;5076637;28;20032;-62
2023/02/16 07:03:48;;;;;;;11.90;7.90;;;4.90;65.20;;;;;;5070893;28;20035;-62
2023/02/16 07:06:14;;;;;;;11.45;8.00;;;4.90;65.20;;;;;;5096411;28;20036;-62
2023/02/16 07:08:39;;;;;;;15.85;9.18;;;4.90;65.20;;;;;;5094317;28;20070;-63
2023/02/16 07:11:05;;;;;;;18.33;10.48;;;4.90;65.20;;;;;;5093927;28;20047;-61
2023/02/16 07:13:35;;;;;;;14.77;10.88;;;4.90;65.00;;;;;;5096913;28;20086;-61
2023/02/16 07:16:01;;;;;;;18.75;11.90;;;5.00;65.00;;;;;;5096806;28;20038;-60
2023/02/16 07:18:27;;;;;;;24.67;14.00;;;4.90;64.90;;;;;;5097302;28;20036;-60
2023/02/16 07:20:53;;;;;;;24.45;14.85;;;4.90;64.80;;;;;;5096239;28;20045;-61
2023/02/16 07:23:20;;;;;;;22.02;12.80;;;4.90;64.80;;;;;;5096592;28;20028;-61
2023/02/16 07:25:45;;;;;;;20.70;13.73;;;4.90;64.80;;;;;;5096537;28;20031;-61
2023/02/16 07:28:11;;;;;;;23.80;13.88;;;5.00;64.50;;;;;;5096408;28;20103;-61
2023/02/16 07:30:37;;;;;;;23.83;14.57;;;5.00;64.70;;;;;;5096233;28;20036;-61
2023/02/16 07:33:03;;;;;;;25.35;16.23;;;5.10;64.50;;;;;;5096083;28;20028;-61
2023/02/16 07:35:28;;;;;;;24.42;15.95;;;5.20;64.20;;;;;;5096632;28;20031;-60
2023/02/16 07:37:54;;;;;;;26.45;16.58;;;5.30;64.00;;;;;;5096577;28;20441;-61
2023/02/16 07:40:19;;;;;;;20.60;14.93;;;5.40;63.80;;;;;;5096258;28;20466;-61
2023/02/16 07:42:45;;;;;;;24.75;14.57;;;5.60;63.10;;;;;;5096148;28;20027;-60
2023/02/16 07:45:11;;;;;;;24.42;15.23;;;5.60;62.60;;;;;;5095849;28;20024;-63
2023/02/16 07:47:37;;;;;;;19.50;14.00;;;5.60;62.60;;;;;;5096435;28;20131;-62
2023/02/16 07:50:04;;;;;;;17.92;12.48;;;5.70;62.70;;;;;;5095747;28;20026;-63
2023/02/16 07:52:30;;;;;;;16.75;10.85;;;5.70;62.50;;;;;;5095988;28;20021;-63
2023/02/16 07:54:59;;;;;;;12.70;9.25;;;5.80;62.10;;;;;;5094465;28;20039;-61
2023/02/16 07:57:25;;;;;;;15.80;10.23;;;5.80;61.40;;;;;;5095537;28;20024;-60
2023/02/16 07:59:52;;;;;;;15.05;9.05;;;5.80;60.90;;;;;;5096325;28;20028;-61
2023/02/16 08:02:18;;;;;;;12.23;8.15;;;5.80;61.00;;;;;;5095498;28;20024;-61
2023/02/16 08:04:45;;;;;;;14.38;9.15;;;5.70;61.30;;;;;;5086371;28;20067;-62
2023/02/16 08:07:20;;;;;;;13.73;9.45;;;5.70;61.50;;;;;;5077530;28;20075;-62
2023/02/16 08:09:45;;;;;;;18.35;9.18;;;5.70;61.50;;;;;;5077051;28;20127;-62
2023/02/16 08:12:13;;;;;;;12.57;8.65;;;5.70;61.40;;;;;;5079004;28;20055;-64
2023/02/16 08:14:39;;;;;;;12.27;7.28;;;5.70;61.30;;;;;;5093323;28;20367;-61
2023/02/16 08:17:06;;;;;;;11.43;7.90;;;5.70;61.10;;;;;;5090437;28;20024;-64
2023/02/16 08:19:32;;;;;;;13.25;7.47;;;5.70;61.10;;;;;;5095031;28;20032;-61
2023/02/16 08:22:01;;;;;;;14.63;9.05;;;5.70;61.40;;;;;;5089594;28;20056;-61
2023/02/16 08:24:27;;;;;;;12.77;8.10;;;5.70;61.40;;;;;;5093096;28;20032;-63
2023/02/16 08:26:54;;;;;;;12.40;7.43;;;5.70;61.30;;;;;;5095278;28;20020;-61
2023/02/16 08:29:21;;;;;;;14.20;8.48;;;5.70;60.90;;;;;;5095189;28;20039;-61
2023/02/16 08:31:48;;;;;;;11.95;7.28;;;5.70;61.00;;;;;;5094832;28;20028;-60
2023/02/16 08:34:15;;;;;;;10.57;7.78;;;5.70;61.10;;;;;;5095272;28;20111;-59
2023/02/16 08:36:43;;;;;;;11.70;7.10;;;5.70;60.80;;;;;;5095045;28;20030;-61
2023/02/16 08:39:14;;;;;;;11.32;7.03;;;5.70;61.00;;;;;;5094653;28;20024;-59
2023/02/16 08:41:41;;;;;;;14.15;8.18;;;5.70;61.10;;;;;;5094731;28;20046;-61
2023/02/16 08:44:08;;;;;;;13.23;7.95;;;5.80;61.10;;;;;;5076866;28;20405;-60
2023/02/16 08:46:36;;;;;;;11.00;7.63;;;5.80;60.90;;;;;;5094303;28;20068;-62
2023/02/16 08:49:02;;;;;;;15.07;8.93;;;5.80;60.80;;;;;;5079179;28;20039;-61
2023/02/16 08:51:30;;;;;;;14.10;9.02;;;5.80;60.80;;;;;;5074543;28;20032;-61
2023/02/16 08:53:59;;;;;;;10.85;7.63;;;5.80;60.70;;;;;;5074976;28;20039;-63
2023/02/16 08:56:26;;;;;;;13.07;7.63;;;5.90;60.80;;;;;;5074473;28;20020;-63
2023/02/16 08:58:52;;;;;;;12.35;7.93;;;5.90;60.50;;;;;;5074819;28;20051;-64
2023/02/16 09:01:17;;;;;;;11.30;7.82;;;5.90;60.60;;;;;;5074884;28;20459;-62
2023/02/16 09:03:44;;;;;;;12.90;8.00;;;6.00;60.50;;;;;;5090818;28;20032;-63
2023/02/16 09:06:12;;;;;;;12.85;8.23;;;6.00;60.30;;;;;;5094318;28;20054;-64
2023/02/16 09:08:38;;;;;;;11.00;6.90;;;6.00;60.20;;;;;;5093835;28;20039;-66
2023/02/16 09:11:15;;;;;;;9.85;6.80;;;5.90;60.30;;;;;;5094014;28;20093;-64
2023/02/16 09:13:42;;;;;;;10.30;7.05;;;5.90;60.30;;;;;;5094643;28;20063;-63
2023/02/16 09:16:10;;;;;;;8.63;6.45;;;5.90;60.50;;;;;;5094600;28;20031;-63
2023/02/16 09:18:37;;;;;;;10.25;6.93;;;5.90;60.30;;;;;;5086289;28;20028;-64
2023/02/16 09:21:05;;;;;;;10.27;6.47;;;6.00;60.00;;;;;;5093130;28;20024;-65
2023/02/16 09:23:34;;;;;;;11.02;6.80;;;6.00;59.90;;;;;;5079653;28;20539;-66
2023/02/16 09:26:01;;;;;;;10.95;5.60;;;6.00;60.10;;;;;;5079785;28;20094;-64
2023/02/16 09:28:27;;;;;;;9.23;5.85;;;6.00;60.10;;;;;;5075923;28;20043;-61
2023/02/16 09:30:53;;;;;;;10.70;5.88;;;6.00;59.90;;;;;;5086557;28;20035;-63
2023/02/16 09:33:20;;;;;;;9.02;5.13;;;6.00;59.90;;;;;;5088065;28;20033;-63
2023/02/16 09:35:46;;;;;;;7.97;5.53;;;6.00;59.60;;;;;;5074320;28;20028;-63
2023/02/16 09:38:15;;;;;;;8.00;5.10;;;6.10;59.60;;;;;;5074259;28;20108;-64
2023/02/16 09:40:41;;;;;;;8.07;5.30;;;6.10;59.70;;;;;;5073733;28;20379;-64
2023/02/16 09:43:29;;;;;;;6.47;4.75;;;6.10;59.50;;;;;;5074309;28;20037;-65
2023/02/16 09:45:57;;;;;;;6.88;5.25;;;6.10;59.60;;;;;;5073225;28;20028;-63
2023/02/16 09:48:37;;;;;;;6.72;5.05;;;6.10;59.60;;;;;;5071878;28;20024;-61
2023/02/16 09:51:05;;;;;;;6.93;5.35;;;6.00;59.40;;;;;;5073369;28;20045;-63
2023/02/16 09:53:40;;;;;;;8.27;6.10;;;6.00;59.60;;;;;;5074142;28;20029;-64
2023/02/16 09:56:35;;;;;;;9.43;5.75;;;6.10;59.70;;;;;;5073756;28;20028;-63
2023/02/16 09:59:15;;;;;;;7.70;5.43;;;6.00;59.10;;;;;;5071622;28;20115;-65
2023/02/16 10:01:49;;;;;;;9.02;5.82;;;6.10;59.40;;;;;;5074048;28;20024;-65
2023/02/16 10:04:29;;;;;;;8.13;5.88;;;6.00;59.50;;;;;;5073695;28;20463;-63
2023/02/16 10:07:20;;;;;;;9.27;6.25;;;6.10;59.40;;;;;;5073787;28;20123;-60
2023/02/16 10:09:50;;;;;;;10.57;5.70;;;6.10;59.50;;;;;;5073339;28;20526;-62
2023/02/16 10:12:23;;;;;;;8.93;5.72;;;6.10;59.40;;;;;;5073427;28;20070;-62
2023/02/16 10:14:53;;;;;;;10.30;5.95;;;6.10;59.40;;;;;;5073863;28;20029;-61
2023/02/16 10:17:40;;;;;;;7.22;5.60;;;6.10;59.50;;;;;;5073493;28;20356;-61
2023/02/16 10:20:12;;;;;;;6.65;4.97;;;6.10;59.50;;;;;;5077521;28;20035;-65
2023/02/16 10:22:55;;;;;;;11.27;6.00;;;6.20;59.50;;;;;;5077655;28;20511;-64
2023/02/16 10:25:31;;;;;;;9.57;6.28;;;6.20;59.70;;;;;;5077414;28;20433;-63
2023/02/16 10:28:17;;;;;;;6.43;5.63;;;6.20;59.50;;;;;;5081451;28;20031;-63
2023/02/16 10:30:59;;;;;;;9.02;5.90;;;6.20;59.20;;;;;;5096391;28;20393;-65
2023/02/16 10:33:44;;;;;;;10.30;6.38;;;6.30;59.40;;;;;;5076480;28;20029;-60
2023/02/16 10:36:26;;;;;;;9.55;6.45;;;6.30;59.60;;;;;;5076813;28;20098;-62
2023/02/16 10:39:08;;;;;;;8.32;5.90;;;6.30;59.50;;;;;;5077423;28;20103;-63
2023/02/16 10:41:39;;;;;;;8.98;5.88;;;6.40;59.40;;;;;;5077081;28;20044;-65
2023/02/16 10:44:12;;;;;;;7.72;5.72;;;6.50;59.30;;;;;;5076502;28;20030;-61
2023/02/16 10:46:42;;;;;;;9.43;6.13;;;6.50;59.10;;;;;;5076893;28;20029;-65
2023/02/16 10:49:12;;;;;;;8.32;5.72;;;6.40;59.10;;;;;;5077245;28;20035;-63
2023/02/16 10:51:39;;;;;;;6.80;5.55;;;6.40;59.20;;;;;;5076568;28;20390;-66
2023/02/16 10:54:21;;;;;;;12.65;5.97;;;6.40;59.20;;;;;;5076996;28;20040;-66
2023/02/16 10:56:56;;;;;;;6.75;5.10;;;6.40;59.20;;;;;;5076597;28;20459;-63
2023/02/16 10:59:21;;;;;;;6.75;5.57;;;6.40;59.20;;;;;;5076583;28;20474;-62
2023/02/16 11:01:57;;;;;;;8.35;5.97;;;6.40;59.50;;;;;;5077471;28;20090;-66
2023/02/16 11:04:41;;;;;;;6.43;5.18;;;6.40;59.20;;;;;;5077549;28;20032;-64
2023/02/16 11:07:10;;;;;;;7.55;5.30;;;6.50;59.30;;;;;;5076588;28;20048;-61
2023/02/16 11:09:37;;;;;;;8.75;5.53;;;6.50;59.20;;;;;;5076595;28;20036;-62
2023/02/16 11:12:22;;;;;;;9.65;6.25;;;6.50;59.10;;;;;;5076243;28;20090;-63
2023/02/16 11:14:55;;;;;;;9.20;5.65;;;6.70;58.90;;;;;;5076253;28;20029;-63
2023/02/16 11:17:22;;;;;;;7.85;5.43;;;6.70;58.80;;;;;;5075994;28;20104;-63
2023/02/16 11:20:23;;;;;;;7.93;5.85;;;6.70;58.90;;;;;;5076471;28;20082;-63
2023/02/16 11:22:48;;;;;;;8.60;5.43;;;6.80;58.60;;;;;;5076233;28;20450;-63
2023/02/16 11:25:18;;;;;;;9.27;5.88;;;6.80;58.60;;;;;;5076289;28;20036;-62
2023/02/16 11:27:50;;;;;;;9.98;6.10;;;6.90;58.50;;;;;;5076138;28;20481;-63
2023/02/16 11:30:22;;;;;;;8.68;5.88;;;6.90;58.30;;;;;;5075211;28;20197;-64
2023/02/16 11:32:50;;;;;;;8.45;5.63;;;6.80;58.20;;;;;;5076140;28;20040;-64
2023/02/16 11:35:16;;;;;;;9.75;5.68;;;6.80;58.50;;;;;;5075965;28;20032;-63
2023/02/16 11:37:42;;;;;;;10.48;6.32;;;6.70;58.30;;;;;;5076080;28;20366;-63
2023/02/16 11:40:27;;;;;;;7.80;5.35;;;6.70;58.50;;;;;;5076572;28;20078;-61
2023/02/16 11:42:56;;;;;;;9.07;5.93;;;6.60;58.50;;;;;;5075987;28;20027;-64
2023/02/16 11:45:33;;;;;;;8.75;6.03;;;6.60;58.80;;;;;;5091076;28;20117;-61
2023/02/16 11:48:23;;;;;;;10.80;6.20;;;6.60;58.80;;;;;;5096064;28;20466;-65
2023/02/16 11:51:04;;;;;;;8.48;5.70;;;6.60;58.70;;;;;;5095276;28;20055;-63
2023/02/16 11:53:32;;;;;;;7.68;5.75;;;6.70;58.70;;;;;;5096056;28;20032;-63
2023/02/16 11:56:26;;;;;;;10.32;6.68;;;6.70;58.60;;;;;;5095394;28;20029;-62
2023/02/16 11:59:18;;;;;;;10.25;6.75;;;6.70;58.60;;;;;;5092710;28;20051;-63
2023/02/16 12:01:52;;;;;;;9.27;6.03;;;6.80;58.50;;;;;;5078911;28;20064;-64
2023/02/16 12:04:50;;;;;;;10.65;6.88;;;6.80;58.50;;;;;;5075395;28;20139;-65
2023/02/16 12:07:33;;;;;;;8.25;6.03;;;6.80;58.30;;;;;;5078776;28;20144;-62
2023/02/16 12:10:12;;;;;;;9.25;6.15;;;6.80;58.40;;;;;;5095253;28;20032;-62
2023/02/16 12:12:56;;;;;;;10.65;6.50;;;6.80;58.40;;;;;;5095150;28;20024;-63
2023/02/16 12:15:34;;;;;;;8.23;5.85;;;6.80;58.50;;;;;;5095161;28;20466;-62
2023/02/16 12:18:25;;;;;;;9.38;5.80;;;6.80;58.60;;;;;;5095446;28;20526;-62
2023/02/16 12:21:05;;;;;;;8.32;5.72;;;6.80;58.60;;;;;;5094753;28;20363;-60
2023/02/16 12:23:38;;;;;;;8.82;5.85;;;6.80;58.60;;;;;;5095422;28;20039;-62
2023/02/16 12:26:30;;;;;;;9.35;5.90;;;6.80;58.60;;;;;;5095219;28;20027;-60
2023/02/16 12:29:20;;;;;;;8.45;5.15;;;6.90;58.50;;;;;;5095135;28;20021;-62
2023/02/16 12:31:59;;;;;;;7.07;5.28;;;6.90;58.40;;;;;;5095662;28;20032;-63
2023/02/16 12:35:06;;;;;;;8.43;5.68;;;6.90;58.40;;;;;;5095402;28;20190;-63
2023/02/16 12:37:59;;;;;;;9.23;5.55;;;6.90;58.40;;;;;;5081373;28;20051;-61
2023/02/16 12:40:27;;;;;;;8.48;5.32;;;6.90;58.40;;;;;;5094780;28;20116;-61
2023/02/16 12:43:30;;;;;;;7.43;5.10;;;6.90;58.20;;;;;;5094779;28;20038;-60
2023/02/16 12:46:00;;;;;;;8.25;5.38;;;6.90;58.20;;;;;;5039606;28;20079;-60
2023/02/16 12:48:36;;;;;;;7.53;5.32;;;6.90;58.30;;;;;;5094922;28;20032;-63
2023/02/16 12:51:09;;;;;;;7.57;5.00;;;7.00;58.30;;;;;;5094573;28;20032;-59
2023/02/16 12:53:42;;;;;;;8.85;5.50;;;6.90;58.20;;;;;;5094416;28;20070;-59
2023/02/16 12:56:16;;;;;;;8.23;5.65;;;7.00;58.40;;;;;;5095151;28;20116;-60
2023/02/16 12:58:45;;;;;;;10.00;5.43;;;7.00;58.40;;;;;;5094413;28;20024;-62
2023/02/16 13:01:17;;;;;;;9.88;6.55;;;7.00;58.40;;;;;;5094657;28;20103;-61
2023/02/16 13:04:05;;;;;;;9.40;5.82;;;6.90;58.70;;;;;;5094533;28;20340;-62
2023/02/16 13:06:49;;;;;;;6.63;5.00;;;6.90;58.70;;;;;;5094259;28;20135;-62
2023/02/16 13:09:40;;;;;;;6.53;4.85;;;6.90;58.70;;;;;;5094998;28;20054;-63
2023/02/16 13:12:26;;;;;;;7.38;5.30;;;7.00;58.70;;;;;;5094267;28;20039;-61
2023/02/16 13:15:08;;;;;;;7.60;5.18;;;7.00;58.70;;;;;;5094378;28;20028;-61
2023/02/16 13:17:42;;;;;;;7.95;5.72;;;7.00;58.70;;;;;;5079539;28;20058;-62
2023/02/16 13:20:19;;;;;;;7.18;5.65;;;7.00;58.50;;;;;;5089290;28;20024;-62
2023/02/16 13:22:53;;;;;;;7.90;5.25;;;7.00;58.60;;;;;;5081608;28;20055;-67
2023/02/16 13:25:53;;;;;;;8.90;5.70;;;7.00;58.70;;;;;;5084828;28;20031;-64
2023/02/16 13:28:36;;;;;;;8.40;5.18;;;7.00;58.70;;;;;;5093926;28;20047;-65
2023/02/16 13:31:39;;;;;;;9.10;5.90;;;7.00;58.70;;;;;;5094027;28;20089;-66
2023/02/16 13:34:11;;;;;;;8.10;5.35;;;7.10;58.70;;;;;;5093932;28;20028;-65
2023/02/16 13:36:53;;;;;;;8.32;5.43;;;7.00;58.70;;;;;;5093468;28;20067;-67
2023/02/16 13:39:21;;;;;;;7.72;5.28;;;7.10;58.70;;;;;;5091853;28;20024;-66
2023/02/16 13:42:25;;;;;;;8.25;5.28;;;7.00;58.60;;;;;;5088363;28;20036;-64
2023/02/16 13:44:55;;;;;;;6.97;4.80;;;7.00;58.60;;;;;;5048706;28;20036;-61
2023/02/16 13:47:32;;;;;;;8.05;4.47;;;7.00;58.60;;;;;;5077887;28;20064;-60
2023/02/16 13:50:00;;;;;;;7.45;4.82;;;7.00;58.60;;;;;;5074123;28;20459;-62
2023/02/16 13:52:29;;;;;;;6.88;4.97;;;7.00;58.60;;;;;;5094351;28;20024;-64
2023/02/16 13:54:57;;;;;;;6.15;4.63;;;7.00;58.60;;;;;;5098268;28;20020;-64
2023/02/16 13:57:46;;;;;;;6.22;4.75;;;7.00;58.50;;;;;;5098238;28;20043;-63
2023/02/16 14:00:34;;;;;;;6.10;4.53;;;7.00;58.50;;;;;;5079921;28;20024;-62
2023/02/16 14:03:12;;;;;;;7.03;4.85;;;7.00;58.60;;;;;;5097987;28;20111;-60